Time;durP1;ratioP1;P1;durP2;ratioP2;P2;SDS_P1;SDS_P2;PMS_P1;PMS_P2;Temp;Humidity;BMP_temperature;BMP_pressure;BME280_temperature;BME280_humidity;BME280_pressure;Samples;Min_cycle;Max_cycle;Signal;HPM_P1;HPM_P2
2021/03/10 00:02:35;;;;;;;22.33;15.95;;;;;;;;;;5021675;28;20030;-91
2021/03/10 00:05:33;;;;;;;;;;;;;;;;;;;;;
2021/03/10 00:08:28;;;;;;;23.70;16.50;;;;;;;;;;5019369;28;20544;-91
2021/03/10 00:11:53;;;;;;;26.80;17.38;;;;;;;;;;5009761;28;20044;-91
2021/03/10 00:14:37;;;;;;;24.33;16.42;;;;;;;;;;5018048;28;20117;-89
2021/03/10 00:17:23;;;;;;;25.45;17.92;;;;;;;;;;5025969;28;20117;-91
2021/03/10 00:20:18;;;;;;;25.13;17.50;;;;;;;;;;5029005;28;20158;-90
2021/03/10 00:23:06;;;;;;;30.80;19.25;;;;;;;;;;5028203;28;20456;-91
2021/03/10 00:29:11;;;;;;;30.45;18.45;;;;;;;;;;5029297;28;20023;-92
2021/03/10 00:32:14;;;;;;;27.92;19.33;;;;;;;;;;4972431;28;21041;-93
2021/03/10 01:03:52;;;;;;;30.35;21.55;;;;;;;;;;4808690;29;21494;-92
2021/03/10 01:06:43;;;;;;;33.65;23.23;;;;;;;;;;4847625;29;20025;-90
2021/03/10 01:09:50;;;;;;;31.50;21.67;;;;;;;;;;4892079;29;20053;-91
2021/03/10 01:12:50;;;;;;;30.52;21.42;;;;;;;;;;4994217;28;20046;-91
2021/03/10 01:16:04;;;;;;;32.50;23.25;;;;;;;;;;5016436;28;20025;-91
2021/03/10 01:19:07;;;;;;;;;;;;;;;;;;;;;
2021/03/10 01:22:15;;;;;;;32.30;21.70;;;;;;;;;;5007786;28;20022;-91
2021/03/10 01:25:06;;;;;;;33.60;22.13;;;;;;;;;;5014484;28;20072;-92
2021/03/10 01:27:51;;;;;;;31.95;22.02;;;;;;;;;;5000013;28;20440;-92
2021/03/10 01:31:00;;;;;;;28.10;21.05;;;;;;;;;;5004158;28;20022;-92
2021/03/10 01:33:48;;;;;;;33.17;22.23;;;;;;;;;;5018281;28;20500;-91
2021/03/10 01:36:34;;;;;;;30.13;21.33;;;;;;;;;;5029120;28;20061;-91
2021/03/10 01:43:27;;;;;;;31.40;21.38;;;;;;;;;;4935479;29;20056;-92
2021/03/10 01:49:40;;;;;;;32.17;20.90;;;;;;;;;;4957986;28;20042;-91
2021/03/10 01:52:25;;;;;;;32.00;22.08;;;;;;;;;;4970378;28;20480;-90
2021/03/10 01:55:11;;;;;;;32.80;22.40;;;;;;;;;;5024966;28;20473;-88
2021/03/10 01:57:56;;;;;;;29.63;21.45;;;;;;;;;;5009708;28;20032;-89
2021/03/10 02:00:44;;;;;;;35.22;22.60;;;;;;;;;;5011522;28;20500;-90
2021/03/10 02:07:19;;;;;;;;;;;;;;;;;;;;;
2021/03/10 02:10:25;;;;;;;35.50;23.80;;;;;;;;;;5012825;28;20025;-90
2021/03/10 03:04:46;;;;;;;34.85;22.80;;;;;;;;;;4982525;28;20108;-91
2021/03/10 03:08:01;;;;;;;;;;;;;;;;;;;;;
2021/03/10 03:14:56;;;;;;;;;;;;;;;;;;;;;
2021/03/10 05:06:18;;;;;;;41.03;26.00;;;;;;;;;;5027427;28;20095;-91
2021/03/10 05:09:11;;;;;;;42.40;26.50;;;;;;;;;;5029015;28;20067;-91
2021/03/10 05:54:43;;;;;;;47.53;30.10;;;;;;;;;;5799381;22;20072;-91
2021/03/10 05:58:06;;;;;;;;;;;;;;;;;;;;;
2021/03/10 06:19:01;;;;;;;49.40;30.48;;;;;;;;;;4819905;29;20102;-92
2021/03/10 06:21:49;;;;;;;51.38;30.23;;;;;;;;;;4884696;29;20131;-90
2021/03/10 06:24:34;;;;;;;46.25;29.48;;;;;;;;;;4929448;29;20532;-91
2021/03/10 06:34:41;;;;;;;47.05;28.98;;;;;;;;;;4946592;29;20046;-93
2021/03/10 06:40:58;;;;;;;48.08;28.27;;;;;;;;;;4897214;29;20028;-88
2021/03/10 06:43:43;;;;;;;48.28;30.20;;;;;;;;;;5002401;28;20045;-87
2021/03/10 06:46:32;;;;;;;46.85;28.50;;;;;;;;;;5022050;28;20026;-88
2021/03/10 06:49:17;;;;;;;52.53;30.75;;;;;;;;;;5027997;28;20025;-89
2021/03/10 06:59:27;;;;;;;45.97;29.10;;;;;;;;;;4981385;28;20036;-93
2021/03/10 07:02:47;;;;;;;45.92;28.25;;;;;;;;;;5016500;28;20042;-92
2021/03/10 07:09:22;;;;;;;43.42;28.45;;;;;;;;;;4982560;28;20097;-89
2021/03/10 07:12:08;;;;;;;45.15;29.90;;;;;;;;;;5025250;28;20026;-87
2021/03/10 07:18:48;;;;;;;44.78;27.15;;;;;;;;;;4971295;28;20417;-87
2021/03/10 07:21:56;;;;;;;;;;;;;;;;;;;;;
2021/03/10 07:25:02;;;;;;;42.35;27.08;;;;;;;;;;5013389;28;20022;-91
2021/03/10 07:27:59;;;;;;;46.35;29.65;;;;;;;;;;5008315;28;20057;-84
2021/03/10 07:30:45;;;;;;;45.97;28.60;;;;;;;;;;5013487;28;20014;-86
2021/03/10 07:34:03;;;;;;;46.28;29.48;;;;;;;;;;5009453;28;20025;-87
2021/03/10 07:36:51;;;;;;;53.22;33.08;;;;;;;;;;4979955;28;20852;-87
2021/03/10 07:39:43;;;;;;;61.25;37.17;;;;;;;;;;4978641;28;20104;-87
2021/03/10 07:42:31;;;;;;;57.80;37.53;;;;;;;;;;5004118;28;20050;-86
2021/03/10 07:45:23;;;;;;;47.70;30.88;;;;;;;;;;5005604;28;20056;-85
2021/03/10 07:48:14;;;;;;;43.50;28.65;;;;;;;;;;5010789;28;20041;-86
2021/03/10 07:51:11;;;;;;;41.58;28.65;;;;;;;;;;5010632;28;20026;-87
2021/03/10 07:54:09;;;;;;;45.35;30.85;;;;;;;;;;5005092;28;20038;-90
2021/03/10 07:57:28;;;;;;;41.72;28.50;;;;;;;;;;5011369;28;20037;-89
2021/03/10 08:00:38;;;;;;;43.75;29.65;;;;;;;;;;4933859;28;20099;-87
2021/03/10 08:03:55;;;;;;;43.87;28.77;;;;;;;;;;4940901;28;20569;-89
2021/03/10 08:07:03;;;;;;;44.22;29.02;;;;;;;;;;5023665;28;20254;-88
2021/03/10 08:10:34;;;;;;;42.63;27.20;;;;;;;;;;5002831;28;20022;-91
2021/03/10 08:13:36;;;;;;;44.40;27.58;;;;;;;;;;4936398;29;20027;-89
2021/03/10 08:16:42;;;;;;;41.08;28.70;;;;;;;;;;5007984;28;20025;-89
2021/03/10 08:19:38;;;;;;;45.67;28.25;;;;;;;;;;5008141;28;20025;-89
2021/03/10 08:22:28;;;;;;;42.00;27.90;;;;;;;;;;4973041;28;20027;-89
2021/03/10 08:25:33;;;;;;;;;;;;;;;;;;5014590;28;20528;-87
2021/03/10 08:28:21;;;;;;;38.97;26.52;;;;;;;;;;5001908;28;19913;-86
2021/03/10 08:31:08;;;;;;;38.83;25.55;;;;;;;;;;5005628;28;20116;-89
2021/03/10 08:34:15;;;;;;;40.50;27.27;;;;;;;;;;4996870;28;20034;-88
2021/03/10 08:37:00;;;;;;;41.33;26.60;;;;;;;;;;5004975;28;20040;-88
2021/03/10 08:39:46;;;;;;;43.70;28.27;;;;;;;;;;5014550;28;20030;-87
2021/03/10 08:42:32;;;;;;;40.15;28.15;;;;;;;;;;5002447;28;20080;-81
2021/03/10 08:45:31;;;;;;;38.35;25.80;;;;;;;;;;5015842;28;20542;-81
2021/03/10 08:48:16;;;;;;;39.83;25.73;;;;;;;;;;5008377;28;20022;-81
2021/03/10 08:51:03;;;;;;;44.65;26.52;;;;;;;;;;5003919;28;20132;-82
2021/03/10 08:53:49;;;;;;;41.75;26.75;;;;;;;;;;4993495;28;20017;-84
2021/03/10 08:56:45;;;;;;;35.28;25.75;;;;;;;;;;5006449;28;20807;-82
2021/03/10 08:59:37;;;;;;;38.20;26.45;;;;;;;;;;5009782;28;20042;-85
2021/03/10 09:02:25;;;;;;;35.60;25.85;;;;;;;;;;5003748;28;20045;-85
2021/03/10 09:05:12;;;;;;;38.08;25.85;;;;;;;;;;5011927;28;20156;-83
2021/03/10 09:07:57;;;;;;;37.20;24.73;;;;;;;;;;5005141;28;20358;-83
2021/03/10 09:10:47;;;;;;;37.80;25.85;;;;;;;;;;5025013;28;20500;-83
2021/03/10 09:13:33;;;;;;;35.40;24.92;;;;;;;;;;5021673;28;20038;-84
2021/03/10 09:16:18;;;;;;;37.40;24.75;;;;;;;;;;5007425;28;20041;-83
2021/03/10 09:19:03;;;;;;;37.00;23.27;;;;;;;;;;5014658;28;20034;-84
2021/03/10 09:21:48;;;;;;;44.35;31.50;;;;;;;;;;5003510;28;20030;-84
2021/03/10 09:24:44;;;;;;;37.05;25.25;;;;;;;;;;5008988;28;20026;-86
2021/03/10 09:27:30;;;;;;;32.47;23.92;;;;;;;;;;5006460;28;20022;-84
2021/03/10 09:30:25;;;;;;;34.00;25.08;;;;;;;;;;5009531;28;20033;-82
2021/03/10 09:33:17;;;;;;;36.90;25.02;;;;;;;;;;5005985;28;20022;-82
2021/03/10 09:36:02;;;;;;;34.75;24.48;;;;;;;;;;5009366;28;20029;-84
2021/03/10 09:38:50;;;;;;;31.25;21.92;;;;;;;;;;5017732;28;20030;-84
2021/03/10 09:41:35;;;;;;;31.73;22.08;;;;;;;;;;5009251;28;20302;-84
2021/03/10 09:44:21;;;;;;;29.15;20.65;;;;;;;;;;5003014;28;20496;-83
2021/03/10 09:47:16;;;;;;;31.17;23.45;;;;;;;;;;5017004;28;20069;-84
2021/03/10 09:50:03;;;;;;;27.65;20.67;;;;;;;;;;5020785;28;20083;-85
2021/03/10 09:52:48;;;;;;;30.02;20.95;;;;;;;;;;5005086;28;20029;-85
2021/03/10 09:55:33;;;;;;;35.58;24.27;;;;;;;;;;5005673;28;20042;-85
2021/03/10 09:58:18;;;;;;;29.85;18.95;;;;;;;;;;5006297;28;20501;-84
2021/03/10 10:01:04;;;;;;;26.67;17.85;;;;;;;;;;4992757;28;20064;-84
2021/03/10 10:03:49;;;;;;;24.42;17.13;;;;;;;;;;5006130;28;20022;-84
2021/03/10 10:06:34;;;;;;;25.75;17.95;;;;;;;;;;5005261;28;20036;-83
2021/03/10 10:09:20;;;;;;;24.17;17.05;;;;;;;;;;5001912;28;20033;-83
2021/03/10 10:12:05;;;;;;;26.27;17.25;;;;;;;;;;5002225;28;20080;-83
2021/03/10 10:14:53;;;;;;;26.83;18.60;;;;;;;;;;5004266;28;20030;-83
2021/03/10 10:17:40;;;;;;;26.95;18.20;;;;;;;;;;5005596;28;20030;-83
2021/03/10 10:20:27;;;;;;;27.05;17.80;;;;;;;;;;5003588;28;20030;-83
2021/03/10 10:23:12;;;;;;;26.52;18.05;;;;;;;;;;5013628;28;20044;-85
2021/03/10 10:25:57;;;;;;;28.90;19.40;;;;;;;;;;5012224;28;20034;-82
2021/03/10 10:28:43;;;;;;;94.85;62.78;;;;;;;;;;5010031;28;20172;-84
2021/03/10 10:31:28;;;;;;;33.05;23.80;;;;;;;;;;5008895;28;20029;-82
2021/03/10 10:34:13;;;;;;;28.13;19.23;;;;;;;;;;5017236;28;20022;-89
2021/03/10 10:36:59;;;;;;;23.27;14.55;;;;;;;;;;5016549;28;20045;-89
2021/03/10 10:39:44;;;;;;;23.30;15.88;;;;;;;;;;5020177;28;20029;-87
2021/03/10 10:42:29;;;;;;;23.20;14.82;;;;;;;;;;5015723;28;20108;-89
2021/03/10 10:45:15;;;;;;;20.77;13.43;;;;;;;;;;5017808;28;20049;-89
2021/03/10 10:48:01;;;;;;;20.60;11.90;;;;;;;;;;5010969;28;20545;-89
2021/03/10 10:50:46;;;;;;;20.15;12.30;;;;;;;;;;5012817;28;20040;-89
2021/03/10 10:53:31;;;;;;;18.48;12.02;;;;;;;;;;5029945;28;20129;-87
2021/03/10 10:56:17;;;;;;;14.48;10.25;;;;;;;;;;5007128;28;20051;-89
2021/03/10 10:59:03;;;;;;;12.40;8.07;;;;;;;;;;5018108;28;20103;-91
2021/03/10 11:01:48;;;;;;;12.60;7.95;;;;;;;;;;5012575;28;20097;-89
2021/03/10 11:04:33;;;;;;;11.98;7.57;;;;;;;;;;5013541;28;20025;-88
2021/03/10 11:07:19;;;;;;;9.23;5.95;;;;;;;;;;5019942;28;20015;-90
2021/03/10 11:10:05;;;;;;;8.52;5.25;;;;;;;;;;5016789;28;20026;-90
2021/03/10 11:12:50;;;;;;;10.52;6.13;;;;;;;;;;5014433;28;20107;-89
2021/03/10 11:18:15;;;;;;;10.45;6.10;;;;;;;;;;6056669;23;20016;-90
2021/03/10 11:38:54;;;;;;;;;;;;;;;;;;;;;
2021/03/10 12:15:44;;;;;;;7.95;4.63;;;;;;;;;;5676087;23;20346;-88
2021/03/10 12:28:53;;;;;;;6.53;4.15;;;;;;;;;;4999399;28;20033;-89
2021/03/10 12:31:41;;;;;;;9.13;4.68;;;;;;;;;;5068235;28;20029;-87
2021/03/10 12:34:27;;;;;;;7.50;3.92;;;;;;;;;;5040595;28;20032;-89
2021/03/10 12:37:15;;;;;;;8.32;3.97;;;;;;;;;;5041264;28;20072;-87
2021/03/10 12:40:13;;;;;;;8.30;4.30;;;;;;;;;;5026577;28;20036;-86
2021/03/10 12:43:01;;;;;;;8.50;3.88;;;;;;;;;;5037282;28;20026;-87
2021/03/10 12:45:49;;;;;;;6.82;3.90;;;;;;;;;;5030499;28;20750;-86
2021/03/10 12:48:34;;;;;;;7.35;4.43;;;;;;;;;;5028454;28;20544;-85
2021/03/10 12:51:28;;;;;;;7.97;3.90;;;;;;;;;;5030931;28;20037;-86
2021/03/10 12:54:17;;;;;;;7.35;3.92;;;;;;;;;;5029477;28;20122;-84
2021/03/10 12:57:12;;;;;;;7.10;3.92;;;;;;;;;;5045566;28;20154;-86
2021/03/10 13:00:03;;;;;;;6.43;3.85;;;;;;;;;;5044008;28;20027;-86
2021/03/10 13:02:57;;;;;;;6.70;4.10;;;;;;;;;;5031470;28;20025;-87
2021/03/10 13:05:45;;;;;;;7.38;3.70;;;;;;;;;;5027095;28;20108;-88
2021/03/10 13:08:30;;;;;;;8.38;4.57;;;;;;;;;;5018138;28;20080;-87
2021/03/10 13:11:15;;;;;;;8.30;4.25;;;;;;;;;;5023096;28;20117;-85
2021/03/10 13:14:04;;;;;;;7.60;4.55;;;;;;;;;;5040327;28;20068;-83
2021/03/10 13:16:49;;;;;;;6.65;4.32;;;;;;;;;;5044798;28;20052;-85
2021/03/10 13:19:35;;;;;;;8.68;4.57;;;;;;;;;;5027781;28;20571;-83
2021/03/10 13:22:20;;;;;;;8.27;4.78;;;;;;;;;;5027282;28;20029;-85
2021/03/10 13:25:06;;;;;;;7.70;4.55;;;;;;;;;;5039321;28;20025;-85
2021/03/10 13:27:51;;;;;;;6.97;3.72;;;;;;;;;;5039593;28;20047;-85
2021/03/10 13:30:36;;;;;;;8.10;4.50;;;;;;;;;;5027017;28;20025;-86
2021/03/10 13:33:23;;;;;;;7.97;4.47;;;;;;;;;;5031694;28;20021;-87
2021/03/10 13:36:08;;;;;;;8.45;4.65;;;;;;;;;;5008022;28;20087;-85
2021/03/10 13:38:54;;;;;;;9.75;4.90;;;;;;;;;;5033968;28;20021;-85
2021/03/10 13:41:42;;;;;;;9.18;4.57;;;;;;;;;;5032395;28;20041;-85
2021/03/10 13:44:28;;;;;;;9.63;4.65;;;;;;;;;;5031653;28;20053;-86
2021/03/10 13:47:13;;;;;;;10.35;4.25;;;;;;;;;;5044144;28;20029;-85
2021/03/10 13:49:58;;;;;;;11.98;6.78;;;;;;;;;;5029681;28;20555;-87
2021/03/10 13:52:44;;;;;;;34.95;22.92;;;;;;;;;;5014834;28;20061;-86
2021/03/10 13:55:31;;;;;;;9.00;5.47;;;;;;;;;;5029640;28;20014;-84
2021/03/10 13:58:16;;;;;;;8.77;5.28;;;;;;;;;;5045274;28;20028;-86
2021/03/10 14:01:04;;;;;;;9.05;5.63;;;;;;;;;;5042294;28;20025;-86
2021/03/10 14:03:49;;;;;;;10.80;5.63;;;;;;;;;;5040281;28;20064;-85
2021/03/10 14:06:34;;;;;;;10.52;5.63;;;;;;;;;;5039762;28;20451;-85
2021/03/10 14:09:20;;;;;;;9.85;5.90;;;;;;;;;;5038167;28;20071;-82
2021/03/10 14:12:05;;;;;;;9.52;5.60;;;;;;;;;;5012969;28;20022;-86
2021/03/10 14:14:51;;;;;;;25.13;17.83;;;;;;;;;;5027849;28;20028;-85
2021/03/10 14:17:36;;;;;;;11.60;7.20;;;;;;;;;;5042413;28;20072;-84
2021/03/10 14:20:24;;;;;;;10.70;5.78;;;;;;;;;;5042501;28;20087;-85
2021/03/10 14:23:09;;;;;;;10.05;6.28;;;;;;;;;;5039501;28;20116;-84
2021/03/10 14:25:54;;;;;;;10.70;6.20;;;;;;;;;;5019800;28;20044;-85
2021/03/10 14:28:42;;;;;;;11.43;5.63;;;;;;;;;;5044411;28;20032;-85
2021/03/10 14:31:27;;;;;;;10.18;5.60;;;;;;;;;;5030393;28;20031;-86
2021/03/10 14:34:13;;;;;;;8.38;5.07;;;;;;;;;;5024438;28;20024;-85
2021/03/10 14:36:58;;;;;;;10.05;6.07;;;;;;;;;;5041903;28;20025;-85
2021/03/10 14:39:43;;;;;;;10.73;5.68;;;;;;;;;;5034154;28;20169;-85
2021/03/10 14:42:28;;;;;;;8.05;5.55;;;;;;;;;;5036720;28;20379;-85
2021/03/10 14:45:14;;;;;;;9.88;5.47;;;;;;;;;;5028877;28;20083;-85
2021/03/10 14:48:01;;;;;;;12.02;5.88;;;;;;;;;;5012025;28;20017;-86
2021/03/10 14:50:46;;;;;;;14.05;7.35;;;;;;;;;;5011462;28;20037;-84
2021/03/10 14:53:31;;;;;;;18.38;12.25;;;;;;;;;;5006582;28;20041;-85
2021/03/10 14:56:17;;;;;;;11.50;5.85;;;;;;;;;;5027121;28;20488;-84
2021/03/10 14:59:02;;;;;;;11.90;5.70;;;;;;;;;;5047488;28;20025;-85
2021/03/10 15:01:47;;;;;;;8.68;5.35;;;;;;;;;;5045530;28;20033;-83
2021/03/10 15:04:33;;;;;;;8.30;5.03;;;;;;;;;;5027562;28;20028;-85
2021/03/10 15:07:18;;;;;;;13.85;5.57;;;;;;;;;;5045904;28;20033;-85
2021/03/10 15:10:04;;;;;;;10.82;5.30;;;;;;;;;;5030586;28;20519;-85
2021/03/10 15:12:49;;;;;;;8.02;5.15;;;;;;;;;;5035208;28;20031;-88
2021/03/10 15:15:34;;;;;;;9.63;4.85;;;;;;;;;;5028999;28;20053;-85
2021/03/10 15:18:20;;;;;;;10.40;5.50;;;;;;;;;;5030321;28;20303;-85
2021/03/10 15:21:05;;;;;;;7.90;4.85;;;;;;;;;;5038143;28;20100;-84
2021/03/10 15:23:50;;;;;;;7.32;4.10;;;;;;;;;;5029757;28;20060;-83
2021/03/10 15:26:37;;;;;;;8.38;4.95;;;;;;;;;;5038798;28;20085;-92
2021/03/10 15:29:23;;;;;;;7.90;4.20;;;;;;;;;;5031323;28;20121;-90
2021/03/10 15:32:09;;;;;;;7.53;4.47;;;;;;;;;;5036769;28;20074;-91
2021/03/10 15:45:21;;;;;;;9.20;4.85;;;;;;;;;;5086233;23;20138;-89
2021/03/10 15:48:10;;;;;;;10.90;4.20;;;;;;;;;;5013759;28;20034;-89
2021/03/10 15:50:56;;;;;;;9.45;4.78;;;;;;;;;;5010336;28;20061;-89
2021/03/10 16:03:55;;;;;;;12.07;5.23;;;;;;;;;;4970448;28;20053;-87
2021/03/10 16:22:12;;;;;;;9.88;5.15;;;;;;;;;;5605540;23;20063;-89
2021/03/10 16:25:00;;;;;;;9.15;5.78;;;;;;;;;;4980620;28;20033;-88
2021/03/10 16:27:53;;;;;;;8.73;5.38;;;;;;;;;;4977759;28;20397;-88
2021/03/10 16:30:41;;;;;;;9.57;5.03;;;;;;;;;;4967072;28;20033;-89
2021/03/10 16:33:39;;;;;;;;;;;;;;;;;;;;;
2021/03/10 16:36:27;;;;;;;12.70;5.63;;;;;;;;;;4871191;28;20593;-87
2021/03/10 16:39:51;;;;;;;11.50;5.97;;;;;;;;;;4962678;28;20122;-92
2021/03/10 16:42:30;;;;;;;9.20;4.80;;;;;;;;;;4969221;28;20037;-91
2021/03/10 16:45:15;;;;;;;10.07;5.35;;;;;;;;;;4971825;28;20438;-91
2021/03/10 16:48:03;;;;;;;11.23;5.65;;;;;;;;;;4974865;28;20027;-91
2021/03/10 16:50:59;;;;;;;9.80;6.03;;;;;;;;;;4966894;28;20031;-90
2021/03/10 16:53:51;;;;;;;10.80;5.50;;;;;;;;;;4976957;28;20033;-91
2021/03/10 16:56:50;;;;;;;9.93;5.90;;;;;;;;;;4956394;28;20030;-91
2021/03/10 16:59:36;;;;;;;23.70;10.30;;;;;;;;;;4952264;28;20030;-90
2021/03/10 17:02:27;;;;;;;15.80;10.40;;;;;;;;;;4967921;28;20022;-88
2021/03/10 17:05:24;;;;;;;12.48;7.50;;;;;;;;;;4979660;28;20474;-90
2021/03/10 17:08:13;;;;;;;10.00;5.88;;;;;;;;;;4992155;28;20015;-89
2021/03/10 17:10:58;;;;;;;11.45;6.15;;;;;;;;;;4966286;28;20022;-89
2021/03/10 17:13:46;;;;;;;12.70;6.72;;;;;;;;;;4987078;28;20058;-92
2021/03/10 17:20:29;;;;;;;12.43;5.45;;;;;;;;;;4990124;28;20039;-90
2021/03/10 17:23:21;;;;;;;11.98;5.60;;;;;;;;;;4956974;28;20058;-91
2021/03/10 17:26:15;;;;;;;10.77;5.85;;;;;;;;;;4972779;28;20369;-89
2021/03/10 17:29:04;;;;;;;13.32;6.05;;;;;;;;;;4977871;28;20033;-88
2021/03/10 17:34:30;;;;;;;13.18;6.80;;;;;;;;;;5087847;23;20039;-89
2021/03/10 17:37:16;;;;;;;12.02;6.20;;;;;;;;;;5017254;28;20045;-88
2021/03/10 17:40:07;;;;;;;9.65;5.95;;;;;;;;;;4994862;28;20047;-91
2021/03/10 17:43:02;;;;;;;13.05;7.10;;;;;;;;;;4913177;29;20044;-91
2021/03/10 17:46:45;;;;;;;13.23;6.63;;;;;;;;;;4913589;29;20059;-89
2021/03/10 17:54:01;;;;;;;9.45;6.15;;;;;;;;;;4930675;28;20023;-95
2021/03/10 18:00:31;;;;;;;;;;;;;;;;;;;;;
2021/03/10 18:03:16;;;;;;;22.98;14.02;;;;;;;;;;4974949;28;20023;-88
2021/03/10 18:06:10;;;;;;;15.27;7.15;;;;;;;;;;4991356;28;20077;-89
2021/03/10 18:09:41;;;;;;;16.15;7.13;;;;;;;;;;4970808;28;20019;-91
2021/03/10 18:12:07;;;;;;;13.43;5.88;;;;;;;;;;4975644;28;20030;-91
2021/03/10 18:23:21;;;;;;;;;;;;;;;;;;;;;
2021/03/10 19:40:24;;;;;;;21.25;10.45;;;;;;;;;;5024178;28;20101;-91
2021/03/10 19:43:10;;;;;;;15.82;9.18;;;;;;;;;;5015397;28;20026;-87
2021/03/10 19:45:55;;;;;;;15.15;8.00;;;;;;;;;;5011615;28;20046;-89
2021/03/10 19:48:41;;;;;;;19.25;9.10;;;;;;;;;;5008726;28;20021;-89
2021/03/10 19:51:26;;;;;;;16.67;9.35;;;;;;;;;;5015547;28;20021;-91
2021/03/10 19:54:30;;;;;;;17.27;8.10;;;;;;;;;;4969933;28;20047;-90
2021/03/10 19:57:59;;;;;;;18.88;9.90;;;;;;;;;;5018997;28;20542;-92
2021/03/10 20:32:08;;;;;;;19.23;9.68;;;;;;;;;;6132417;22;20055;-91
2021/03/10 20:35:03;;;;;;;21.10;10.00;;;;;;;;;;5026640;28;20045;-87
2021/03/10 20:37:57;;;;;;;17.52;9.52;;;;;;;;;;5028901;28;20022;-90
2021/03/10 20:41:09;;;;;;;;;;;;;;;;;;;;;
2021/03/10 20:47:48;;;;;;;17.15;8.95;;;;;;;;;;5023527;28;20029;-93
2021/03/10 20:54:28;;;;;;;27.38;13.88;;;;;;;;;;4928776;29;20053;-90
2021/03/10 21:01:14;;;;;;;17.25;9.65;;;;;;;;;;5022695;28;20120;-89
2021/03/10 21:04:03;;;;;;;17.42;9.30;;;;;;;;;;5058144;28;20059;-89
2021/03/10 21:07:19;;;;;;;16.00;9.90;;;;;;;;;;5050339;28;20073;-91
2021/03/10 21:10:21;;;;;;;18.80;10.48;;;;;;;;;;5037388;28;20025;-89
2021/03/10 21:13:26;;;;;;;20.80;10.53;;;;;;;;;;5046843;28;20048;-89
2021/03/10 21:16:15;;;;;;;20.02;11.30;;;;;;;;;;5048447;28;20074;-90
2021/03/10 21:19:42;;;;;;;;;;;;;;;;;;;;;
2021/03/10 21:23:00;;;;;;;22.70;11.00;;;;;;;;;;4956969;28;20034;-92
2021/03/10 21:26:00;;;;;;;19.83;10.15;;;;;;;;;;4956105;28;20025;-90
2021/03/10 21:28:49;;;;;;;19.73;9.82;;;;;;;;;;5039293;28;20034;-88
2021/03/10 21:31:46;;;;;;;19.42;10.70;;;;;;;;;;5045862;28;20014;-90
2021/03/10 21:34:45;;;;;;;19.45;9.57;;;;;;;;;;5052734;28;20064;-90
2021/03/10 21:37:48;;;;;;;19.27;9.93;;;;;;;;;;5039027;28;20065;-91
